createdAt,value
2022-08-27T00:01:17.693Z,20.88
2022-08-27T00:03:19.655Z,20.93
2022-08-27T00:05:21.786Z,20.95
2022-08-27T00:07:23.469Z,21.04
2022-08-27T00:09:27.028Z,21.09
2022-08-27T00:11:29.250Z,21.14
2022-08-27T00:13:30.944Z,21.17
2022-08-27T00:15:33.427Z,21.18
2022-08-27T00:17:35.524Z,21.21
2022-08-27T00:19:37.776Z,21.20
2022-08-27T00:21:39.490Z,21.22
2022-08-27T00:23:41.255Z,21.22
2022-08-27T00:25:43.210Z,21.19
2022-08-27T00:27:45.515Z,21.21
2022-08-27T00:29:47.984Z,21.24
2022-08-27T00:31:53.297Z,21.24
2022-08-27T00:33:56.213Z,21.25
2022-08-27T00:35:58.059Z,21.27
2022-08-27T00:38:00.186Z,21.27
2022-08-27T00:40:02.253Z,21.27
2022-08-27T00:42:07.789Z,21.24
2022-08-27T00:44:09.847Z,21.18
2022-08-27T00:46:19.359Z,21.12
2022-08-27T00:48:24.356Z,21.15
2022-08-27T00:50:49.032Z,21.17
2022-08-27T00:52:56.955Z,21.20
2022-08-27T00:55:07.021Z,21.19
2022-08-27T00:57:08.770Z,21.20
2022-08-27T00:59:12.508Z,21.20
2022-08-27T01:01:17.669Z,21.10
2022-08-27T01:03:19.889Z,20.90
2022-08-27T01:05:25.534Z,20.73
2022-08-27T01:07:29.851Z,20.63
2022-08-27T01:09:31.822Z,20.30
2022-08-27T01:11:33.996Z,20.14
2022-08-27T01:13:53.447Z,20.14
2022-08-27T01:15:59.189Z,20.24
2022-08-27T01:18:04.852Z,20.31
2022-08-27T01:20:09.645Z,20.33
2022-08-27T01:22:24.641Z,20.09
2022-08-27T01:24:39.074Z,20.02
2022-08-27T01:26:41.941Z,20.08
2022-08-27T01:28:44.220Z,20.14
2022-08-27T01:30:45.862Z,20.16
2022-08-27T01:32:48.835Z,20.13
2022-08-27T01:34:51.428Z,20.13
2022-08-27T01:36:54.688Z,20.16
2022-08-27T01:38:59.747Z,20.22
2022-08-27T01:41:02.710Z,20.30
2022-08-27T01:43:04.728Z,20.34
2022-08-27T01:45:10.816Z,20.37
2022-08-27T01:47:12.505Z,20.38
2022-08-27T01:49:14.201Z,20.31
2022-08-27T01:51:16.453Z,20.11
2022-08-27T01:53:23.641Z,19.83
2022-08-27T01:55:26.595Z,19.35
2022-08-27T01:57:28.650Z,18.99
2022-08-27T01:59:39.679Z,18.75
2022-08-27T02:01:41.989Z,18.78
2022-08-27T02:03:44.730Z,18.66
2022-08-27T02:05:48.541Z,18.52
2022-08-27T02:07:50.708Z,17.94
2022-08-27T02:09:52.453Z,17.87
2022-08-27T02:11:54.217Z,17.93
2022-08-27T02:13:55.929Z,17.88
2022-08-27T02:15:57.788Z,18.04
2022-08-27T02:17:59.486Z,18.10
2022-08-27T02:20:01.761Z,18.16
2022-08-27T02:22:03.557Z,18.10
2022-08-27T02:24:05.590Z,18.00
2022-08-27T02:26:07.286Z,18.20
2022-08-27T02:28:09.565Z,18.39
2022-08-27T02:30:14.181Z,18.49
2022-08-27T02:32:24.284Z,18.53
2022-08-27T02:34:34.553Z,18.50
2022-08-27T02:36:37.540Z,18.64
2022-08-27T02:38:40.316Z,18.83
2022-08-27T02:40:42.040Z,18.79
2022-08-27T02:42:44.719Z,18.63
2022-08-27T02:44:47.262Z,18.70
2022-08-27T02:46:48.930Z,18.46
2022-08-27T02:48:55.522Z,18.49
2022-08-27T02:50:57.161Z,18.63
2022-08-27T02:52:58.822Z,18.81
2022-08-27T02:55:00.815Z,18.96
2022-08-27T02:57:02.468Z,19.11
2022-08-27T02:59:04.544Z,19.21
2022-08-27T03:01:06.402Z,19.33
2022-08-27T03:03:13.601Z,19.42
2022-08-27T03:05:16.762Z,19.44
2022-08-27T03:07:19.169Z,19.42
2022-08-27T03:09:21.349Z,19.41
2022-08-27T03:11:24.102Z,19.17
2022-08-27T03:13:26.266Z,18.99
2022-08-27T03:15:28.376Z,18.82
2022-08-27T03:17:48.660Z,18.73
2022-08-27T03:19:50.763Z,18.56
2022-08-27T03:21:54.918Z,18.55
2022-08-27T03:23:57.002Z,18.61
2022-08-27T03:26:01.447Z,18.70
2022-08-27T03:28:03.873Z,18.82
2022-08-27T03:30:11.699Z,18.65
2022-08-27T03:32:13.421Z,18.71
2022-08-27T03:34:15.305Z,18.69
2022-08-27T03:36:21.764Z,18.66
2022-08-27T03:38:23.487Z,18.58
2022-08-27T03:40:25.280Z,18.51
2022-08-27T03:42:27.300Z,18.48
2022-08-27T03:44:28.934Z,18.45
2022-08-27T03:46:31.211Z,18.49
2022-08-27T03:48:34.116Z,18.54
2022-08-27T03:50:38.450Z,18.55
2022-08-27T03:52:40.213Z,18.58
2022-08-27T03:54:42.058Z,18.66
2022-08-27T03:56:43.714Z,18.76
2022-08-27T03:58:45.462Z,18.87
2022-08-27T04:00:47.442Z,18.95
2022-08-27T04:02:49.305Z,19.03
2022-08-27T04:04:51.191Z,19.13
2022-08-27T04:06:52.918Z,19.23
2022-08-27T04:08:57.670Z,19.35
2022-08-27T04:10:59.430Z,19.46
2022-08-27T04:13:01.173Z,19.56
2022-08-27T04:15:03.759Z,19.62
2022-08-27T04:17:05.575Z,19.62
2022-08-27T04:19:08.099Z,19.65
2022-08-27T04:21:12.074Z,19.72
2022-08-27T04:23:14.167Z,19.83
2022-08-27T04:25:15.852Z,19.90
2022-08-27T04:27:18.300Z,19.98
2022-08-27T04:29:20.177Z,20.01
2022-08-27T04:31:22.023Z,20.04
2022-08-27T04:33:23.720Z,20.08
2022-08-27T04:35:25.541Z,20.11
2022-08-27T04:37:31.933Z,20.12
2022-08-27T04:39:33.756Z,20.17
2022-08-27T04:41:35.678Z,20.22
2022-08-27T04:43:37.398Z,20.26
2022-08-27T04:45:46.524Z,20.36
2022-08-27T04:47:48.269Z,20.41
2022-08-27T04:49:50.092Z,20.46
2022-08-27T04:51:52.206Z,20.52
2022-08-27T04:53:54.232Z,20.54
2022-08-27T04:55:57.130Z,20.58
2022-08-27T04:57:58.770Z,20.57
2022-08-27T05:00:00.581Z,20.63
2022-08-27T05:02:04.676Z,20.70
2022-08-27T05:04:07.718Z,20.73
2022-08-27T05:06:09.474Z,20.80
2022-08-27T05:08:14.481Z,20.75
2022-08-27T05:10:16.423Z,20.46
2022-08-27T05:12:18.116Z,20.45
2022-08-27T05:14:21.774Z,20.57
2022-08-27T05:16:23.496Z,20.59
2022-08-27T05:18:25.573Z,20.64
2022-08-27T05:20:28.077Z,20.74
2022-08-27T05:22:29.859Z,20.79
2022-08-27T05:24:32.558Z,20.83
2022-08-27T05:26:35.929Z,20.91
2022-08-27T05:28:37.622Z,20.96
2022-08-27T05:30:49.301Z,21.05
2022-08-27T05:32:57.081Z,21.12
2022-08-27T05:34:58.844Z,21.02
2022-08-27T05:37:00.764Z,21.04
2022-08-27T05:39:04.814Z,21.12
2022-08-27T05:41:12.044Z,21.19
2022-08-27T05:43:15.978Z,21.27
2022-08-27T05:45:17.785Z,21.36
2022-08-27T05:47:19.449Z,21.48
2022-08-27T05:49:21.855Z,21.54
2022-08-27T05:51:28.346Z,21.60
2022-08-27T05:53:30.347Z,21.60
2022-08-27T05:55:37.560Z,21.48
2022-08-27T05:57:39.218Z,21.40
2022-08-27T05:59:59.600Z,21.38
2022-08-27T06:02:01.331Z,21.45
2022-08-27T06:04:04.472Z,21.12
2022-08-27T06:06:09.333Z,20.93
2022-08-27T06:08:11.312Z,20.83
2022-08-27T06:10:13.444Z,20.80
2022-08-27T06:12:15.109Z,20.77
2022-08-27T06:14:17.066Z,20.88
2022-08-27T06:16:19.785Z,21.07
2022-08-27T06:18:21.498Z,21.31
2022-08-27T06:20:23.897Z,21.45
2022-08-27T06:22:25.654Z,21.62
2022-08-27T06:24:27.507Z,21.79
2022-08-27T06:26:29.502Z,21.91
2022-08-27T06:28:31.482Z,22.07
2022-08-27T06:30:33.302Z,22.25
2022-08-27T06:32:35.055Z,22.25
2022-08-27T06:34:37.677Z,22.11
2022-08-27T06:36:41.664Z,22.01
2022-08-27T06:38:43.575Z,21.96
2022-08-27T06:40:46.342Z,21.89
2022-08-27T06:42:48.270Z,22.01
2022-08-27T06:44:50.066Z,22.20
2022-08-27T06:46:51.933Z,22.19
2022-08-27T06:48:58.590Z,22.32
2022-08-27T06:51:00.827Z,22.50
2022-08-27T06:53:02.522Z,22.70
2022-08-27T06:55:05.067Z,22.89
2022-08-27T06:57:06.782Z,22.98
2022-08-27T06:59:11.968Z,22.94
2022-08-27T07:01:16.097Z,22.92
2022-08-27T07:03:18.001Z,22.98
2022-08-27T07:05:19.819Z,22.95
2022-08-27T07:07:28.058Z,22.90
2022-08-27T07:09:37.036Z,23.00
2022-08-27T07:11:38.998Z,23.15
2022-08-27T07:13:41.682Z,23.24
2022-08-27T07:15:43.504Z,23.24
2022-08-27T07:17:45.291Z,22.98
2022-08-27T07:19:47.036Z,22.95
2022-08-27T07:21:48.707Z,23.06
2022-08-27T07:23:52.833Z,23.18
2022-08-27T07:25:54.500Z,23.34
2022-08-27T07:27:56.899Z,23.56
2022-08-27T07:29:59.420Z,23.81
2022-08-27T07:32:04.496Z,23.94
2022-08-27T07:34:06.554Z,23.92
2022-08-27T07:36:08.484Z,23.80
2022-08-27T07:38:13.639Z,23.67
2022-08-27T07:40:16.447Z,23.55
2022-08-27T07:42:36.839Z,23.49
2022-08-27T07:44:38.538Z,23.39
2022-08-27T07:46:43.457Z,23.45
2022-08-27T07:48:47.684Z,23.49
2022-08-27T07:50:49.823Z,23.63
2022-08-27T07:52:52.074Z,23.87
2022-08-27T07:54:54.571Z,24.04
2022-08-27T07:56:56.324Z,24.26
2022-08-27T07:58:58.124Z,24.49
2022-08-27T08:01:00.020Z,24.70
2022-08-27T08:03:02.003Z,24.93
2022-08-27T08:05:06.273Z,25.14
2022-08-27T08:07:08.137Z,25.32
2022-08-27T08:09:11.539Z,25.46
2022-08-27T08:11:15.642Z,25.45
2022-08-27T08:13:18.562Z,25.53
2022-08-27T08:15:20.367Z,25.60
2022-08-27T08:17:23.127Z,25.52
2022-08-27T08:19:25.111Z,25.57
2022-08-27T08:21:26.958Z,25.75
2022-08-27T08:23:29.568Z,25.92
2022-08-27T08:25:34.592Z,25.59
2022-08-27T08:27:41.790Z,25.21
2022-08-27T08:29:43.672Z,25.20
2022-08-27T08:31:50.011Z,25.18
2022-08-27T08:33:52.294Z,25.09
2022-08-27T08:35:54.597Z,25.09
2022-08-27T08:37:56.330Z,25.20
2022-08-27T08:39:58.166Z,25.45
2022-08-27T08:42:02.491Z,25.66
2022-08-27T08:44:11.911Z,25.91
2022-08-27T08:46:22.522Z,26.20
2022-08-27T08:48:26.478Z,26.46
2022-08-27T08:50:37.864Z,26.69
2022-08-27T08:52:59.395Z,26.84
2022-08-27T08:55:22.114Z,27.02
2022-08-27T08:57:28.449Z,27.15
2022-08-27T08:59:35.268Z,27.13
2022-08-27T09:01:37.230Z,27.25
2022-08-27T09:03:42.287Z,27.39
2022-08-27T09:05:49.762Z,27.57
2022-08-27T09:08:31.900Z,27.73
2022-08-27T09:10:53.380Z,27.94
2022-08-27T09:13:00.080Z,28.03
2022-08-27T09:15:20.649Z,28.13
2022-08-27T09:17:35.409Z,28.23
2022-08-27T09:19:37.974Z,28.21
2022-08-27T09:21:51.102Z,27.85
2022-08-27T09:24:17.370Z,27.74
2022-08-27T09:26:25.833Z,27.64
2022-08-27T09:28:48.519Z,27.76
2022-08-27T09:30:50.209Z,28.00
2022-08-27T09:33:00.713Z,28.21
2022-08-27T09:35:09.095Z,28.38
2022-08-27T09:37:12.716Z,28.54
2022-08-27T09:39:14.558Z,28.69
2022-08-27T09:41:22.647Z,28.80
2022-08-27T09:43:28.427Z,28.85
2022-08-27T09:45:30.971Z,28.85
2022-08-27T09:47:41.894Z,28.90
2022-08-27T09:49:43.908Z,28.94
2022-08-27T09:51:47.020Z,28.86
2022-08-27T09:54:00.056Z,28.79
2022-08-27T09:56:04.285Z,28.84
2022-08-27T09:58:07.585Z,28.83
2022-08-27T10:00:15.709Z,28.74
2022-08-27T10:02:21.320Z,28.88
2022-08-27T10:04:50.709Z,29.01
2022-08-27T10:06:53.540Z,29.07
2022-08-27T10:08:58.357Z,29.15
2022-08-27T10:11:04.722Z,29.26
2022-08-27T10:13:20.968Z,29.36
2022-08-27T10:15:24.936Z,29.32
2022-08-27T10:17:26.677Z,29.13
2022-08-27T10:19:46.617Z,29.11
2022-08-27T10:22:03.294Z,29.19
2022-08-27T10:24:26.561Z,29.28
2022-08-27T10:26:39.615Z,29.32
2022-08-27T10:29:03.708Z,29.49
2022-08-27T10:31:26.971Z,29.49
2022-08-27T10:33:59.307Z,29.63
2022-08-27T10:36:07.559Z,29.28
2022-08-27T10:38:12.545Z,29.19
2022-08-27T10:40:20.283Z,29.09
2022-08-27T10:42:26.414Z,29.29
2022-08-27T10:44:31.564Z,29.35
2022-08-27T10:47:00.675Z,29.46
2022-08-27T10:49:23.393Z,29.66
2022-08-27T10:51:35.507Z,29.79
2022-08-27T10:54:05.996Z,29.92
2022-08-27T10:56:17.336Z,30.09
2022-08-27T10:58:47.579Z,30.10
2022-08-27T11:01:04.061Z,29.72
2022-08-27T11:03:33.301Z,29.36
2022-08-27T11:05:46.927Z,29.11
2022-08-27T11:07:53.899Z,29.16
2022-08-27T11:10:14.391Z,29.35
2022-08-27T11:12:21.905Z,29.43
2022-08-27T11:14:55.282Z,29.60
2022-08-27T11:17:06.217Z,29.39
2022-08-27T11:19:23.344Z,29.28
2022-08-27T11:21:34.873Z,29.12
2022-08-27T11:24:09.017Z,29.30
2022-08-27T11:26:10.720Z,29.19
2022-08-27T11:28:13.164Z,29.21
2022-08-27T11:30:27.493Z,29.39
2022-08-27T11:33:06.846Z,29.68
2022-08-27T11:35:20.811Z,29.94
2022-08-27T11:37:26.705Z,30.10
2022-08-27T11:39:51.833Z,30.28
2022-08-27T11:42:31.254Z,30.30
2022-08-27T11:44:33.520Z,30.33
2022-08-27T11:46:44.239Z,30.36
2022-08-27T11:48:59.823Z,30.36
2022-08-27T11:51:02.438Z,30.44
2022-08-27T11:53:06.265Z,30.56
2022-08-27T11:55:20.348Z,30.64
2022-08-27T11:57:32.002Z,30.44
2022-08-27T11:59:35.193Z,30.50
2022-08-27T12:01:36.716Z,30.41
2022-08-27T12:03:38.680Z,30.41
2022-08-27T12:05:44.783Z,30.36
2022-08-27T12:07:49.769Z,30.42
2022-08-27T12:09:55.033Z,30.51
2022-08-27T12:11:59.745Z,30.59
2022-08-27T12:14:27.088Z,30.59
2022-08-27T12:16:53.376Z,30.52
2022-08-27T12:19:32.451Z,30.52
2022-08-27T12:21:39.867Z,30.58
2022-08-27T12:24:04.764Z,30.62
2022-08-27T12:26:15.685Z,30.68
2022-08-27T12:28:26.565Z,30.76
2022-08-27T12:30:35.310Z,30.90
2022-08-27T12:32:37.074Z,30.93
2022-08-27T12:34:47.801Z,30.91
2022-08-27T12:36:51.229Z,30.97
2022-08-27T12:38:58.274Z,31.01
2022-08-27T12:41:04.103Z,31.02
2022-08-27T12:43:12.870Z,31.07
2022-08-27T12:45:25.812Z,31.14
2022-08-27T12:47:27.774Z,31.15
2022-08-27T12:49:55.683Z,31.12
2022-08-27T12:51:59.294Z,31.14
2022-08-27T12:54:29.951Z,31.17
2022-08-27T12:56:32.015Z,31.25
2022-08-27T12:58:40.311Z,31.25
2022-08-27T13:01:01.131Z,31.21
2022-08-27T13:03:20.690Z,31.16
2022-08-27T13:05:23.850Z,31.10
2022-08-27T13:07:26.196Z,31.02
2022-08-27T13:09:34.281Z,31.04
2022-08-27T13:11:45.583Z,30.88
2022-08-27T13:13:48.442Z,30.74
2022-08-27T13:15:52.344Z,30.53
2022-08-27T13:17:54.145Z,30.35
2022-08-27T13:19:58.985Z,30.25
2022-08-27T13:22:01.533Z,30.23
2022-08-27T13:24:05.660Z,30.32
2022-08-27T13:26:10.940Z,30.44
2022-08-27T13:28:15.134Z,30.57
2022-08-27T13:30:22.983Z,30.62
2022-08-27T13:32:38.645Z,30.68
2022-08-27T13:34:41.084Z,30.74
2022-08-27T13:37:25.513Z,30.85
2022-08-27T13:39:27.891Z,30.93
2022-08-27T13:41:33.554Z,30.94
2022-08-27T13:43:40.665Z,31.00
2022-08-27T13:45:42.733Z,31.06
2022-08-27T13:47:47.148Z,31.12
2022-08-27T13:49:48.792Z,31.17
2022-08-27T13:51:59.480Z,31.26
2022-08-27T13:54:18.429Z,31.32
2022-08-27T13:56:31.734Z,31.37
2022-08-27T13:58:34.789Z,31.40
2022-08-27T14:00:37.873Z,31.44
2022-08-27T14:02:39.571Z,31.48
2022-08-27T14:04:44.040Z,31.54
2022-08-27T14:06:46.994Z,31.57
2022-08-27T14:08:49.002Z,31.65
2022-08-27T14:11:07.079Z,31.63
2022-08-27T14:13:16.248Z,31.65
2022-08-27T14:15:43.459Z,31.63
2022-08-27T14:17:47.001Z,31.72
2022-08-27T14:19:49.667Z,31.77
2022-08-27T14:21:52.592Z,31.87
2022-08-27T14:23:54.344Z,31.89
2022-08-27T14:25:58.665Z,31.90
2022-08-27T14:28:00.741Z,31.91
2022-08-27T14:30:03.231Z,31.99
2022-08-27T14:32:07.448Z,32.05
2022-08-27T14:34:09.101Z,32.01
2022-08-27T14:36:11.278Z,31.98
2022-08-27T14:38:23.102Z,32.05
2022-08-27T14:40:25.252Z,32.12
2022-08-27T14:42:28.610Z,32.21
2022-08-27T14:44:31.142Z,32.27
2022-08-27T14:46:41.473Z,32.33
2022-08-27T14:48:46.293Z,32.40
2022-08-27T14:50:53.656Z,32.41
2022-08-27T14:52:55.397Z,32.44
2022-08-27T14:54:57.246Z,32.51
2022-08-27T14:56:59.097Z,32.55
2022-08-27T14:59:00.757Z,32.46
2022-08-27T15:01:03.725Z,32.41
2022-08-27T15:03:05.386Z,32.47
2022-08-27T15:05:12.094Z,32.46
2022-08-27T15:07:14.354Z,32.49
2022-08-27T15:09:16.086Z,32.58
2022-08-27T15:11:23.753Z,32.66
2022-08-27T15:13:25.472Z,32.73
2022-08-27T15:15:27.080Z,32.81
2022-08-27T15:17:35.250Z,32.91
2022-08-27T15:19:37.343Z,33.00
2022-08-27T15:21:40.381Z,33.09
2022-08-27T15:23:41.903Z,33.10
2022-08-27T15:25:45.307Z,33.12
2022-08-27T15:27:47.071Z,33.15
2022-08-27T15:29:49.404Z,33.20
2022-08-27T15:31:51.368Z,33.24
2022-08-27T15:33:53.027Z,33.24
2022-08-27T15:35:54.779Z,33.23
2022-08-27T15:37:57.346Z,33.23
2022-08-27T15:39:59.153Z,33.23
2022-08-27T15:42:06.605Z,33.20
2022-08-27T15:44:08.956Z,33.14
2022-08-27T15:46:10.711Z,33.12
2022-08-27T15:48:12.759Z,33.12
2022-08-27T15:50:14.810Z,33.12
2022-08-27T15:52:17.725Z,33.04
2022-08-27T15:54:19.509Z,32.99
2022-08-27T15:56:21.416Z,32.97
2022-08-27T15:58:23.095Z,32.96
2022-08-27T16:00:33.739Z,32.99
2022-08-27T16:02:35.691Z,32.99
2022-08-27T16:04:37.317Z,32.97
2022-08-27T16:06:39.221Z,32.89
2022-08-27T16:08:42.341Z,32.81
2022-08-27T16:10:43.939Z,32.67
2022-08-27T16:12:46.296Z,32.60
2022-08-27T16:14:48.189Z,32.58
2022-08-27T16:16:50.544Z,32.56
2022-08-27T16:18:52.473Z,32.52
2022-08-27T16:20:56.576Z,32.49
2022-08-27T16:22:58.472Z,32.44
2022-08-27T16:25:00.261Z,32.38
2022-08-27T16:27:01.949Z,32.34
2022-08-27T16:29:04.898Z,32.29
2022-08-27T16:31:06.593Z,32.20
2022-08-27T16:33:14.379Z,32.08
2022-08-27T16:35:16.729Z,31.96
2022-08-27T16:37:18.351Z,31.82
2022-08-27T16:39:20.047Z,31.70
2022-08-27T16:41:23.115Z,31.52
2022-08-27T16:43:27.066Z,31.31
2022-08-27T16:45:28.754Z,31.13
2022-08-27T16:47:30.418Z,30.90
2022-08-27T16:49:52.368Z,30.74
2022-08-27T16:51:54.085Z,30.52
2022-08-27T16:53:55.891Z,30.41
2022-08-27T16:55:57.593Z,30.27
2022-08-27T16:57:59.684Z,30.07
2022-08-27T17:00:01.507Z,29.90
2022-08-27T17:02:03.786Z,29.74
2022-08-27T17:04:15.402Z,29.58
2022-08-27T17:06:21.781Z,29.44
2022-08-27T17:08:26.232Z,29.32
2022-08-27T17:10:33.325Z,29.20
2022-08-27T17:12:34.949Z,29.10
2022-08-27T17:14:39.416Z,29.02
2022-08-27T17:16:43.450Z,28.92
2022-08-27T17:18:46.181Z,28.81
2022-08-27T17:20:52.407Z,28.67
2022-08-27T17:22:55.785Z,28.54
2022-08-27T17:24:57.657Z,28.43
2022-08-27T17:26:59.379Z,28.35
2022-08-27T17:29:01.317Z,28.29
2022-08-27T17:31:03.051Z,28.21
2022-08-27T17:33:05.018Z,28.09
2022-08-27T17:35:07.793Z,28.00
2022-08-27T17:37:09.462Z,27.89
2022-08-27T17:39:11.804Z,27.82
2022-08-27T17:41:16.162Z,27.74
2022-08-27T17:43:21.165Z,27.68
2022-08-27T17:45:23.272Z,27.63
2022-08-27T17:47:25.238Z,27.58
2022-08-27T17:49:27.237Z,27.55
2022-08-27T17:51:29.197Z,27.53
2022-08-27T17:53:30.930Z,27.49
2022-08-27T17:55:32.865Z,27.44
2022-08-27T17:57:40.558Z,27.42
2022-08-27T17:59:43.372Z,27.39
2022-08-27T18:01:45.438Z,27.34
2022-08-27T18:03:48.013Z,27.29
2022-08-27T18:05:50.032Z,27.15
2022-08-27T18:07:52.645Z,27.03
2022-08-27T18:09:55.454Z,26.92
2022-08-27T18:11:58.423Z,26.82
2022-08-27T18:14:04.687Z,26.76
2022-08-27T18:16:07.626Z,26.73
2022-08-27T18:18:13.424Z,26.69
2022-08-27T18:20:17.025Z,26.64
2022-08-27T18:22:18.584Z,26.63
2022-08-27T18:24:20.314Z,26.63
2022-08-27T18:26:24.052Z,26.64
2022-08-27T18:28:26.745Z,26.64
2022-08-27T18:30:28.522Z,26.61
2022-08-27T18:32:30.381Z,26.62
2022-08-27T18:34:32.579Z,26.61
2022-08-27T18:36:34.321Z,26.57
2022-08-27T18:38:36.027Z,26.54
2022-08-27T18:40:42.438Z,26.52
2022-08-27T18:42:45.001Z,26.49
2022-08-27T18:44:46.632Z,26.47
2022-08-27T18:46:48.293Z,26.45
2022-08-27T18:48:49.904Z,26.39
2022-08-27T18:50:55.732Z,26.32
2022-08-27T18:52:57.747Z,26.30
2022-08-27T18:54:59.567Z,26.31
2022-08-27T18:57:01.279Z,26.28
2022-08-27T18:59:02.941Z,26.26
2022-08-27T19:01:07.401Z,26.26
2022-08-27T19:03:10.499Z,26.25
2022-08-27T19:05:13.152Z,26.23
2022-08-27T19:07:15.059Z,26.19
2022-08-27T19:09:17.022Z,26.17
2022-08-27T19:11:19.021Z,26.12
2022-08-27T19:13:20.682Z,26.12
2022-08-27T19:15:22.537Z,26.03
2022-08-27T19:17:30.228Z,25.73
2022-08-27T19:19:31.897Z,25.37
2022-08-27T19:21:33.804Z,25.17
2022-08-27T19:23:36.439Z,25.11
2022-08-27T19:25:38.130Z,24.86
2022-08-27T19:27:40.126Z,24.68
2022-08-27T19:29:41.801Z,24.69
2022-08-27T19:31:43.616Z,24.49
2022-08-27T19:33:45.684Z,24.52
2022-08-27T19:35:47.336Z,24.37
2022-08-27T19:37:53.047Z,24.43
2022-08-27T19:39:55.765Z,24.38
2022-08-27T19:41:57.475Z,24.47
2022-08-27T19:43:59.166Z,24.58
2022-08-27T19:46:02.335Z,24.68
2022-08-27T19:48:06.346Z,24.79
2022-08-27T19:50:10.057Z,24.88
2022-08-27T19:52:12.962Z,24.93
2022-08-27T19:54:14.706Z,24.93
2022-08-27T19:56:16.487Z,24.88
2022-08-27T19:58:19.307Z,24.72
2022-08-27T20:00:22.588Z,24.57
2022-08-27T20:02:24.499Z,24.61
2022-08-27T20:04:30.408Z,24.67
2022-08-27T20:06:34.787Z,24.76
2022-08-27T20:08:36.645Z,24.83
2022-08-27T20:10:39.266Z,24.86
2022-08-27T20:12:41.002Z,24.89
2022-08-27T20:14:42.864Z,24.92
2022-08-27T20:16:45.436Z,24.93
2022-08-27T20:18:47.346Z,24.96
2022-08-27T20:20:49.066Z,24.99
2022-08-27T20:22:51.756Z,25.00
2022-08-27T20:24:53.448Z,25.01
2022-08-27T20:26:57.030Z,24.99
2022-08-27T20:28:59.899Z,24.99
2022-08-27T20:31:02.207Z,25.00
2022-08-27T20:33:03.898Z,25.02
2022-08-27T20:35:07.332Z,24.99
2022-08-27T20:37:08.966Z,24.91
2022-08-27T20:39:10.751Z,24.79
2022-08-27T20:41:12.616Z,24.72
2022-08-27T20:43:14.377Z,24.63
2022-08-27T20:45:17.175Z,24.53
2022-08-27T20:47:26.686Z,24.46
2022-08-27T20:49:28.810Z,24.45
2022-08-27T20:51:30.544Z,24.45
2022-08-27T20:53:53.214Z,24.45
2022-08-27T20:55:56.803Z,24.09
2022-08-27T20:58:17.091Z,23.70
2022-08-27T21:00:22.558Z,23.49
2022-08-27T21:02:27.050Z,23.56
2022-08-27T21:04:28.717Z,23.66
2022-08-27T21:06:33.392Z,23.64
2022-08-27T21:08:35.444Z,23.49
2022-08-27T21:10:37.200Z,23.48
2022-08-27T21:12:38.908Z,23.48
2022-08-27T21:14:40.759Z,23.54
2022-08-27T21:16:42.737Z,23.63
2022-08-27T21:18:44.666Z,23.74
2022-08-27T21:20:47.517Z,23.80
2022-08-27T21:22:51.223Z,23.83
2022-08-27T21:24:53.058Z,23.86
2022-08-27T21:26:55.579Z,23.88
2022-08-27T21:28:57.356Z,23.91
2022-08-27T21:30:59.035Z,23.97
2022-08-27T21:33:00.772Z,23.97
2022-08-27T21:35:02.530Z,23.96
2022-08-27T21:37:04.950Z,23.96
2022-08-27T21:39:06.819Z,23.92
2022-08-27T21:41:08.667Z,23.88
2022-08-27T21:43:10.337Z,23.84
2022-08-27T21:45:12.101Z,23.83
2022-08-27T21:47:13.865Z,23.81
2022-08-27T21:49:15.502Z,23.78
2022-08-27T21:51:24.491Z,23.73
2022-08-27T21:53:26.388Z,23.65
2022-08-27T21:55:28.046Z,23.57
2022-08-27T21:57:29.857Z,23.50
2022-08-27T21:59:40.437Z,23.42
2022-08-27T22:01:42.250Z,23.42
2022-08-27T22:03:50.706Z,23.46
2022-08-27T22:05:52.836Z,23.48
2022-08-27T22:07:54.484Z,23.49
2022-08-27T22:09:56.142Z,23.54
2022-08-27T22:11:58.017Z,23.55
2022-08-27T22:13:59.656Z,23.55
2022-08-27T22:16:01.826Z,23.51
2022-08-27T22:18:04.896Z,23.45
2022-08-27T22:20:08.855Z,23.41
2022-08-27T22:22:10.651Z,23.35
2022-08-27T22:24:12.837Z,23.28
2022-08-27T22:26:14.521Z,23.28
2022-08-27T22:28:16.914Z,23.27
2022-08-27T22:30:20.840Z,23.31
2022-08-27T22:32:22.466Z,23.35
2022-08-27T22:34:24.296Z,23.34
2022-08-27T22:36:26.069Z,23.38
2022-08-27T22:38:27.805Z,23.41
2022-08-27T22:40:30.682Z,23.45
2022-08-27T22:42:32.741Z,23.45
2022-08-27T22:44:38.400Z,23.40
2022-08-27T22:46:40.096Z,23.31
2022-08-27T22:48:42.120Z,23.10
2022-08-27T22:50:45.698Z,22.85
2022-08-27T22:52:47.883Z,22.72
2022-08-27T22:54:49.845Z,22.66
2022-08-27T22:56:56.486Z,22.62
2022-08-27T22:58:58.144Z,22.58
2022-08-27T23:00:59.857Z,22.56
2022-08-27T23:03:02.183Z,22.59
2022-08-27T23:05:06.690Z,22.63
2022-08-27T23:07:08.906Z,22.70
2022-08-27T23:09:10.599Z,22.76
2022-08-27T23:11:12.533Z,22.82
2022-08-27T23:13:14.540Z,22.82
2022-08-27T23:15:18.274Z,22.68
2022-08-27T23:17:21.448Z,22.52
2022-08-27T23:19:23.250Z,22.48
2022-08-27T23:21:24.935Z,22.47
2022-08-27T23:23:27.690Z,22.48
2022-08-27T23:25:51.254Z,22.50
2022-08-27T23:27:53.727Z,22.57
2022-08-27T23:30:01.941Z,22.64
2022-08-27T23:32:04.098Z,22.73
2022-08-27T23:34:05.746Z,22.75
2022-08-27T23:36:09.414Z,22.76
2022-08-27T23:38:11.541Z,22.77
2022-08-27T23:40:13.503Z,22.74
2022-08-27T23:42:18.492Z,22.72
2022-08-27T23:44:20.198Z,22.72
2022-08-27T23:46:21.881Z,22.70
2022-08-27T23:48:23.552Z,22.66
2022-08-27T23:50:33.804Z,22.66
2022-08-27T23:52:36.930Z,22.66
2022-08-27T23:54:38.586Z,22.64
2022-08-27T23:56:40.249Z,22.56
2022-08-27T23:58:41.918Z,22.47
